Time;durP1;ratioP1;P1;durP2;ratioP2;P2;SDS_P1;SDS_P2;PMS_P1;PMS_P2;Temp;Humidity;BMP_temperature;BMP_pressure;BME280_temperature;BME280_humidity;BME280_pressure;Samples;Min_cycle;Max_cycle;Signal;HPM_P1;HPM_P2
2023/01/08 00:01:56;;;;;;;14.90;8.30;;;;;;;8.62;100.00;100242.69;5053810;28;20029;-49
2023/01/08 00:04:21;;;;;;;13.48;7.70;;;;;;;8.60;100.00;100242.66;5054481;28;20041;-50
2023/01/08 00:06:46;;;;;;;15.60;8.00;;;;;;;8.61;100.00;100231.56;5054563;28;20029;-49
2023/01/08 00:09:12;;;;;;;20.02;8.32;;;;;;;8.61;100.00;100241.84;5052739;28;20044;-49
2023/01/08 00:11:37;;;;;;;15.32;7.85;;;;;;;8.62;100.00;100235.84;5053995;28;20060;-49
2023/01/08 00:14:02;;;;;;;17.25;7.38;;;;;;;8.70;100.00;100241.19;5054447;28;20021;-49
2023/01/08 00:16:28;;;;;;;13.75;7.25;;;;;;;8.71;100.00;100248.06;5053171;28;20033;-49
2023/01/08 00:18:53;;;;;;;15.43;7.18;;;;;;;8.73;100.00;100243.84;5054204;28;20021;-49
2023/01/08 00:21:19;;;;;;;14.75;7.00;;;;;;;8.72;100.00;100239.53;5053600;28;20476;-50
2023/01/08 00:23:45;;;;;;;12.60;7.05;;;;;;;8.72;100.00;100237.84;5054046;28;20032;-50
2023/01/08 00:26:11;;;;;;;16.38;8.02;;;;;;;8.71;100.00;100225.84;5054180;28;20017;-50
2023/01/08 00:28:37;;;;;;;19.63;7.28;;;;;;;8.71;100.00;100222.38;5053173;28;20096;-46
2023/01/08 00:31:03;;;;;;;17.58;8.02;;;;;;;8.70;100.00;100218.06;5053941;28;20421;-46
2023/01/08 00:33:28;;;;;;;22.98;8.40;;;;;;;8.66;100.00;100216.25;5053540;28;20372;-50
2023/01/08 00:35:54;;;;;;;14.60;7.60;;;;;;;8.64;100.00;100216.22;5053403;28;20020;-50
2023/01/08 00:38:19;;;;;;;15.95;8.18;;;;;;;8.61;100.00;100210.13;5053948;28;20021;-49
2023/01/08 00:40:47;;;;;;;14.30;7.28;;;;;;;8.62;100.00;100204.16;5053541;28;20028;-49
2023/01/08 00:43:12;;;;;;;14.00;7.07;;;;;;;8.61;100.00;100194.72;5053188;28;20017;-49
2023/01/08 00:45:37;;;;;;;19.95;7.10;;;;;;;8.63;100.00;100195.63;5053441;28;20029;-46
2023/01/08 00:48:03;;;;;;;16.88;6.95;;;;;;;8.64;100.00;100192.25;5053635;28;20092;-45
2023/01/08 00:50:28;;;;;;;18.00;7.22;;;;;;;8.64;100.00;100187.09;5052717;28;20104;-49
2023/01/08 00:52:53;;;;;;;15.07;7.55;;;;;;;8.65;100.00;100188.81;5053735;28;20033;-50
2023/01/08 00:55:18;;;;;;;12.13;6.63;;;;;;;8.64;100.00;100185.38;5053511;28;20111;-49
2023/01/08 00:57:44;;;;;;;14.95;7.35;;;;;;;8.66;100.00;100188.00;5052579;28;20021;-49
2023/01/08 01:00:13;;;;;;;17.98;8.55;;;;;;;8.67;100.00;100189.75;5053688;28;20058;-48
2023/01/08 01:02:38;;;;;;;19.08;9.13;;;;;;;8.69;100.00;100199.22;5053259;28;20120;-50
2023/01/08 01:05:04;;;;;;;20.10;9.20;;;;;;;8.69;100.00;100193.22;5052648;28;20127;-50
2023/01/08 01:07:30;;;;;;;18.48;9.40;;;;;;;8.68;100.00;100194.06;5053444;28;20029;-46
2023/01/08 01:09:55;;;;;;;19.88;10.40;;;;;;;8.66;100.00;100193.13;5053425;28;20024;-49
2023/01/08 01:12:21;;;;;;;21.00;10.07;;;;;;;8.65;100.00;100178.53;5052527;28;20053;-48
2023/01/08 01:14:46;;;;;;;18.88;9.68;;;;;;;8.65;100.00;100178.53;5052987;28;20032;-49
2023/01/08 01:17:12;;;;;;;24.23;10.80;;;;;;;8.65;100.00;100181.09;5052996;28;20032;-47
2023/01/08 01:19:37;;;;;;;24.02;9.10;;;;;;;8.62;100.00;100168.19;5052008;28;20424;-49
2023/01/08 01:22:03;;;;;;;20.10;8.93;;;;;;;8.63;100.00;100168.22;5053161;28;20068;-50
2023/01/08 01:24:28;;;;;;;17.15;8.52;;;;;;;8.61;100.00;100162.19;5052302;28;20032;-47
2023/01/08 01:26:55;;;;;;;18.98;8.77;;;;;;;8.61;100.00;100176.72;5053178;28;20096;-49
2023/01/08 01:29:21;;;;;;;23.50;9.63;;;;;;;8.56;100.00;100168.91;5052909;28;20384;-48
2023/01/08 01:31:46;;;;;;;20.00;9.20;;;;;;;8.62;100.00;100165.63;5051922;28;20028;-49
2023/01/08 01:34:12;;;;;;;16.33;7.95;;;;;;;8.61;100.00;100156.19;5053173;28;20033;-48
2023/01/08 01:36:37;;;;;;;22.35;8.90;;;;;;;8.63;100.00;100159.66;5052824;28;20021;-50
2023/01/08 01:39:03;;;;;;;16.63;8.68;;;;;;;8.65;100.00;100155.41;5052293;28;20029;-50
2023/01/08 01:41:32;;;;;;;16.45;8.60;;;;;;;8.66;100.00;100158.06;5052787;28;20108;-49
2023/01/08 01:44:19;;;;;;;19.30;7.88;;;;;;;8.69;100.00;100168.41;5052747;28;20025;-49
2023/01/08 01:46:46;;;;;;;22.13;9.63;;;;;;;8.73;100.00;100170.22;5051610;28;20108;-50
2023/01/08 01:49:18;;;;;;;16.38;8.27;;;;;;;8.74;100.00;100168.53;5052967;28;20027;-49
2023/01/08 01:51:48;;;;;;;21.00;8.73;;;;;;;8.76;100.00;100172.00;5052492;28;20025;-49
2023/01/08 01:54:14;;;;;;;15.00;7.63;;;;;;;8.76;100.00;100176.28;5051977;28;20029;-50
2023/01/08 01:56:40;;;;;;;12.38;7.30;;;;;;;8.74;100.00;100178.81;5052347;28;20029;-46
2023/01/08 01:59:05;;;;;;;14.90;7.40;;;;;;;8.71;100.00;100173.56;5052623;28;20025;-48
2023/01/08 02:01:32;;;;;;;17.52;7.57;;;;;;;8.65;100.00;100173.41;5051941;28;20175;-50
2023/01/08 02:03:57;;;;;;;12.63;6.73;;;;;;;8.60;100.00;100178.44;5052711;28;20116;-48
2023/01/08 02:06:41;;;;;;;15.10;6.60;;;;;;;8.53;100.00;100177.41;5052622;28;20571;-50
2023/01/08 02:09:18;;;;;;;14.00;6.03;;;;;;;8.45;100.00;100183.97;5052765;28;20044;-49
2023/01/08 02:15:04;;;;;;;8.90;4.10;;;;;;;8.27;100.00;100171.50;5051839;28;20075;-47
2023/01/08 02:17:58;;;;;;;15.45;4.93;;;;;;;8.06;100.00;100170.06;5052317;28;20056;-49
2023/01/08 02:20:29;;;;;;;17.42;4.28;;;;;;;7.91;100.00;100160.25;5052510;28;20484;-46
2023/01/08 02:23:22;;;;;;;13.30;3.80;;;;;;;7.82;100.00;100159.09;5051832;28;20039;-48
2023/01/08 02:26:05;;;;;;;11.43;3.30;;;;;;;7.69;100.00;100142.47;5052341;28;20345;-45
2023/01/08 02:28:36;;;;;;;12.90;3.10;;;;;;;7.56;100.00;100146.34;5051659;28;20087;-46
2023/01/08 02:31:03;;;;;;;12.20;3.78;;;;;;;7.49;100.00;100158.13;5052543;28;20127;-48
2023/01/08 02:33:30;;;;;;;13.98;3.35;;;;;;;7.42;100.00;100153.63;5054136;28;20029;-47
2023/01/08 02:36:30;;;;;;;13.48;2.88;;;;;;;7.39;100.00;100148.41;5055528;28;20060;-49
2023/01/08 02:39:03;;;;;;;12.98;2.60;;;;;;;7.30;100.00;100148.13;5056293;28;20037;-49
2023/01/08 02:41:57;;;;;;;10.23;2.50;;;;;;;7.28;100.00;100154.88;5055917;28;20017;-49
2023/01/08 02:44:30;;;;;;;10.85;2.65;;;;;;;7.21;100.00;100162.38;5056149;28;20024;-50
2023/01/08 02:46:59;;;;;;;14.07;2.95;;;;;;;7.17;100.00;100154.56;5055899;28;20037;-48
2023/01/08 02:49:31;;;;;;;9.98;2.38;;;;;;;7.14;100.00;100160.44;5055189;28;20032;-49
2023/01/08 02:51:56;;;;;;;13.18;2.60;;;;;;;7.11;100.00;100157.75;5056094;28;20033;-49
2023/01/08 02:54:26;;;;;;;12.07;2.30;;;;;;;7.08;100.00;100155.13;5055963;28;20028;-49
2023/01/08 02:57:02;;;;;;;14.95;3.40;;;;;;;7.04;100.00;100149.00;5054846;28;20082;-50
2023/01/08 02:59:31;;;;;;;9.38;2.30;;;;;;;7.00;100.00;100159.13;5055459;28;20029;-48
2023/01/08 03:01:57;;;;;;;10.27;2.63;;;;;;;6.97;100.00;100147.09;5055951;28;20024;-49
2023/01/08 03:04:24;;;;;;;9.32;2.17;;;;;;;6.91;100.00;100150.31;5055056;28;20049;-49
2023/01/08 03:06:50;;;;;;;17.10;2.75;;;;;;;6.86;100.00;100150.97;5055629;28;20021;-50
2023/01/08 03:09:16;;;;;;;14.98;2.70;;;;;;;6.80;100.00;100153.34;5055602;28;20380;-49
2023/01/08 03:12:05;;;;;;;14.35;2.75;;;;;;;6.77;100.00;100133.59;5054436;28;20047;-48
2023/01/08 03:14:49;;;;;;;12.45;2.25;;;;;;;6.72;100.00;100143.69;5055532;28;20029;-48
2023/01/08 03:17:26;;;;;;;16.40;2.80;;;;;;;6.67;100.00;100146.91;5054624;28;20029;-46
2023/01/08 03:20:18;;;;;;;12.95;2.53;;;;;;;6.67;100.00;100146.91;5055223;28;20025;-49
2023/01/08 03:22:47;;;;;;;21.40;3.38;;;;;;;6.65;100.00;100145.97;5052369;28;20112;-48
2023/01/08 03:25:14;;;;;;;15.20;1.98;;;;;;;6.63;100.00;100142.53;5054477;28;20470;-49
2023/01/08 03:27:47;;;;;;;14.57;2.40;;;;;;;6.62;100.00;100156.13;5055102;28;20036;-48
2023/01/08 03:30:15;;;;;;;10.98;2.38;;;;;;;6.61;100.00;100141.59;5055142;28;20044;-48
2023/01/08 03:32:42;;;;;;;;;;;;;;;6.67;100.00;100144.34;5054493;28;20484;-49
2023/01/08 03:35:11;;;;;;;11.35;2.63;;;;;;;6.61;100.00;100144.16;5055375;28;19912;-49
2023/01/08 03:37:44;;;;;;;12.25;2.58;;;;;;;6.59;100.00;100134.72;5054763;28;20461;-50
2023/01/08 03:40:20;;;;;;;12.40;2.70;;;;;;;6.61;100.00;100131.34;5054442;28;20031;-49
2023/01/08 03:42:45;;;;;;;11.32;2.65;;;;;;;6.61;100.00;100139.03;5054753;28;20028;-49
2023/01/08 03:45:11;;;;;;;14.15;2.55;;;;;;;6.63;100.00;100142.53;5054154;28;20025;-49
2023/01/08 03:47:38;;;;;;;14.38;2.65;;;;;;;6.64;100.00;100136.59;5054846;28;20020;-48
2023/01/08 03:50:08;;;;;;;17.38;3.20;;;;;;;6.61;100.00;100131.34;5054682;28;20127;-47
2023/01/08 03:52:33;;;;;;;18.45;3.15;;;;;;;6.63;100.00;100132.28;5053827;28;20078;-48
2023/01/08 03:54:59;;;;;;;10.88;2.42;;;;;;;6.66;100.00;100134.94;5054816;28;20029;-49
2023/01/08 03:57:24;;;;;;;16.05;3.20;;;;;;;6.66;100.00;100117.00;5054925;28;20118;-49
2023/01/08 03:59:50;;;;;;;15.95;3.10;;;;;;;6.68;100.00;100110.25;5053381;28;20041;-45
2023/01/08 04:02:15;;;;;;;15.65;3.28;;;;;;;6.70;100.00;100122.28;5054599;28;20032;-46
2023/01/08 04:04:41;;;;;;;11.15;2.58;;;;;;;6.72;100.00;100119.78;5054135;28;20052;-49
2023/01/08 04:07:09;;;;;;;16.30;3.28;;;;;;;6.75;100.00;100112.19;5053711;28;20029;-49
2023/01/08 04:09:34;;;;;;;11.43;2.70;;;;;;;6.75;100.00;100105.38;5054139;28;20025;-50
2023/01/08 04:12:00;;;;;;;15.48;3.05;;;;;;;6.77;100.00;100113.13;5054665;28;20025;-48
2023/01/08 04:14:25;;;;;;;13.90;3.00;;;;;;;6.78;100.00;100106.28;5053722;28;20070;-48
2023/01/08 04:16:50;;;;;;;14.90;3.20;;;;;;;6.76;100.00;100098.56;5053974;28;20028;-50
2023/01/08 04:19:16;;;;;;;14.38;2.80;;;;;;;6.75;100.00;100081.44;5054158;28;20108;-49
2023/01/08 04:21:41;;;;;;;11.75;3.13;;;;;;;6.71;100.00;100089.88;5053258;28;20033;-49
2023/01/08 04:24:06;;;;;;;15.27;3.05;;;;;;;6.67;100.00;100106.81;5054274;28;20025;-50
2023/01/08 04:26:32;;;;;;;11.20;2.85;;;;;;;6.67;100.00;100094.00;5054050;28;20051;-48
2023/01/08 04:28:57;;;;;;;11.38;2.75;;;;;;;6.70;100.00;100100.91;5053463;28;20033;-48
2023/01/08 04:31:22;;;;;;;21.55;3.83;;;;;;;6.71;100.00;100103.56;5053933;28;20032;-49
2023/01/08 04:33:48;;;;;;;14.60;3.50;;;;;;;6.74;100.00;100095.09;5053737;28;20079;-49
2023/01/08 04:36:13;;;;;;;12.52;3.72;;;;;;;6.80;100.00;100085.03;5053177;28;20029;-49
2023/01/08 04:38:39;;;;;;;12.18;3.95;;;;;;;6.83;100.00;100095.41;5053628;28;20025;-48
2023/01/08 04:41:04;;;;;;;12.45;3.75;;;;;;;6.87;100.00;100089.56;5053796;28;20063;-48
2023/01/08 04:43:30;;;;;;;11.18;4.03;;;;;;;6.91;100.00;100081.13;5052668;28;20044;-48
2023/01/08 04:46:00;;;;;;;13.93;4.20;;;;;;;6.94;100.00;100087.19;5053938;28;20028;-49
2023/01/08 04:48:27;;;;;;;12.52;3.83;;;;;;;6.95;100.00;100089.78;5053205;28;20033;-48
2023/01/08 04:50:52;;;;;;;14.30;3.97;;;;;;;6.95;100.00;100069.31;5053321;28;20439;-50
2023/01/08 04:53:18;;;;;;;14.27;3.90;;;;;;;6.96;100.00;100075.28;5053746;28;20021;-49
2023/01/08 04:55:43;;;;;;;16.02;3.75;;;;;;;6.95;100.00;100091.50;5052163;28;20025;-50
2023/01/08 04:58:08;;;;;;;17.48;4.00;;;;;;;6.94;100.00;100087.19;5053451;28;20025;-49
2023/01/08 05:00:34;;;;;;;14.40;3.70;;;;;;;6.96;100.00;100088.09;5053177;28;20085;-48
2023/01/08 05:02:59;;;;;;;14.23;3.85;;;;;;;6.99;100.00;100091.63;5052983;28;20056;-48
2023/01/08 05:05:25;;;;;;;11.18;4.38;;;;;;;6.98;100.00;100089.03;5053345;28;20041;-50
2023/01/08 05:07:50;;;;;;;13.82;4.13;;;;;;;6.98;100.00;100089.88;5053413;28;20065;-49
2023/01/08 05:10:16;;;;;;;11.30;3.60;;;;;;;6.98;100.00;100083.91;5052652;28;20407;-49
2023/01/08 05:12:41;;;;;;;16.45;4.60;;;;;;;6.96;100.00;100090.66;5052960;28;20472;-47
2023/01/08 05:15:08;;;;;;;11.18;4.30;;;;;;;6.97;100.00;100098.41;5053533;28;20029;-50
2023/01/08 05:17:33;;;;;;;11.85;3.92;;;;;;;6.97;100.00;100085.59;5052073;28;20450;-50
2023/01/08 05:19:58;;;;;;;10.23;3.22;;;;;;;6.96;100.00;100088.09;5053384;28;20544;-49
2023/01/08 05:22:23;;;;;;;11.20;3.25;;;;;;;6.97;100.00;100082.16;5053167;28;20024;-49
2023/01/08 05:24:49;;;;;;;16.45;3.17;;;;;;;6.96;100.00;100088.97;5052043;28;20436;-50
2023/01/08 05:27:14;;;;;;;11.38;2.85;;;;;;;6.95;100.00;100081.25;5053017;28;20017;-49
2023/01/08 05:29:39;;;;;;;10.13;2.67;;;;;;;6.96;100.00;100081.28;5052613;28;20055;-48
2023/01/08 05:32:13;;;;;;;9.02;2.70;;;;;;;6.99;100.00;100083.09;5052385;28;20107;-50
2023/01/08 05:34:38;;;;;;;9.00;2.65;;;;;;;6.99;100.00;100083.94;5052915;28;20033;-49
2023/01/08 05:37:04;;;;;;;11.27;2.97;;;;;;;6.98;100.00;100071.94;5053204;28;20021;-46
2023/01/08 05:39:29;;;;;;;11.38;2.60;;;;;;;6.99;100.00;100060.88;5051840;28;20492;-48
2023/01/08 05:41:54;;;;;;;11.00;2.40;;;;;;;6.98;100.00;100058.28;5052749;28;20037;-48
2023/01/08 05:44:20;;;;;;;12.60;2.58;;;;;;;6.98;100.00;100059.13;5053014;28;20496;-50
2023/01/08 05:46:45;;;;;;;9.60;2.35;;;;;;;6.95;100.00;100059.06;5051970;28;20067;-49
2023/01/08 05:49:10;;;;;;;12.00;2.50;;;;;;;6.88;100.00;100068.25;5053015;28;20060;-49
2023/01/08 05:51:35;;;;;;;11.30;2.50;;;;;;;6.84;100.00;100073.19;5052539;28;20082;-49
2023/01/08 05:54:01;;;;;;;12.10;2.53;;;;;;;6.75;100.00;100066.97;5052022;28;20380;-49
2023/01/08 05:56:26;;;;;;;13.07;2.60;;;;;;;6.68;100.00;100061.59;5052632;28;20100;-50
2023/01/08 05:58:54;;;;;;;13.68;2.35;;;;;;;6.63;100.00;100069.13;5051876;28;20017;-49
2023/01/08 06:01:20;;;;;;;13.90;2.83;;;;;;;6.64;100.00;100070.00;5052685;28;20350;-50
2023/01/08 06:03:45;;;;;;;13.13;2.88;;;;;;;6.55;100.00;100071.44;5052099;28;20567;-48
2023/01/08 06:06:12;;;;;;;16.13;2.97;;;;;;;6.49;100.00;100070.38;5051008;28;20025;-49
2023/01/08 06:08:37;;;;;;;14.75;3.00;;;;;;;6.46;100.00;100068.56;5053525;28;20024;-50
2023/01/08 06:11:06;;;;;;;11.57;2.85;;;;;;;6.46;100.00;100071.13;5055200;28;20321;-50
2023/01/08 06:13:32;;;;;;;12.60;3.03;;;;;;;6.39;100.00;100076.84;5054441;28;20142;-48
2023/01/08 06:15:59;;;;;;;10.70;2.90;;;;;;;6.34;100.00;100088.63;5055246;28;20112;-49
2023/01/08 06:18:25;;;;;;;13.43;3.15;;;;;;;6.29;100.00;100090.16;5055138;28;20392;-47
2023/01/08 06:20:50;;;;;;;15.90;3.10;;;;;;;6.25;100.00;100090.06;5054195;28;20017;-50
2023/01/08 06:23:15;;;;;;;11.75;2.90;;;;;;;6.19;100.00;100089.84;5055138;28;20021;-49
2023/01/08 06:25:41;;;;;;;12.38;2.70;;;;;;;6.16;100.00;100094.84;5054705;28;20032;-50
2023/01/08 06:28:07;;;;;;;11.90;2.53;;;;;;;6.18;100.00;100094.91;5054593;28;20423;-49
2023/01/08 06:30:32;;;;;;;19.85;3.47;;;;;;;6.06;100.00;100092.78;5054834;28;20039;-49
2023/01/08 06:32:59;;;;;;;17.23;3.25;;;;;;;6.04;100.00;100112.31;5055086;28;20021;-49
2023/01/08 06:35:25;;;;;;;18.42;3.70;;;;;;;6.01;100.00;100109.66;5054250;28;20025;-49
2023/01/08 06:37:50;;;;;;;13.02;2.50;;;;;;;5.98;100.00;100114.59;5054595;28;20428;-50
2023/01/08 06:40:16;;;;;;;13.38;2.85;;;;;;;5.96;100.00;100113.69;5054982;28;20475;-50
2023/01/08 06:42:42;;;;;;;15.35;3.13;;;;;;;5.94;100.00;100113.66;5053834;28;20025;-50
2023/01/08 06:45:08;;;;;;;15.75;3.08;;;;;;;5.89;100.00;100121.13;5055024;28;20037;-50
2023/01/08 06:47:34;;;;;;;11.25;2.83;;;;;;;5.85;100.00;100116.75;5054618;28;20480;-50
2023/01/08 06:49:59;;;;;;;15.15;3.20;;;;;;;5.86;100.00;100115.94;5053979;28;20451;-48
2023/01/08 06:52:24;;;;;;;16.20;3.08;;;;;;;5.78;100.00;100117.31;5054646;28;20378;-49
2023/01/08 06:54:50;;;;;;;20.75;4.07;;;;;;;5.84;100.00;100115.00;5054258;28;20103;-50
2023/01/08 06:57:15;;;;;;;15.80;3.60;;;;;;;5.83;100.00;100110.69;5054158;28;20021;-49
2023/01/08 06:59:41;;;;;;;16.45;3.30;;;;;;;5.81;100.00;100120.00;5054237;28;20043;-48
2023/01/08 07:02:15;;;;;;;19.08;3.85;;;;;;;5.83;100.00;100120.06;5053808;28;20074;-48
2023/01/08 07:04:40;;;;;;;24.25;4.10;;;;;;;5.80;100.00;100110.59;5018470;28;1039350;-50
2023/01/08 07:07:06;;;;;;;17.55;3.40;;;;;;;5.80;100.00;100120.81;5055820;28;20040;-48
2023/01/08 07:09:34;;;;;;;17.80;3.88;;;;;;;5.81;100.00;100117.44;5054550;28;20367;-49
2023/01/08 07:12:00;;;;;;;22.70;4.07;;;;;;;5.80;100.00;100123.38;5055415;28;20361;-50
2023/01/08 07:14:25;;;;;;;20.08;3.97;;;;;;;5.79;100.00;100119.06;5055627;28;20024;-46
2023/01/08 07:16:50;;;;;;;18.05;3.88;;;;;;;5.79;100.00;100103.72;5054577;28;20032;-49
2023/01/08 07:19:16;;;;;;;17.13;4.25;;;;;;;5.81;100.00;100111.44;5055180;28;20037;-45
2023/01/08 07:21:41;;;;;;;17.25;4.53;;;;;;;5.84;100.00;100104.75;5055110;28;20104;-46
2023/01/08 07:24:06;;;;;;;17.38;4.32;;;;;;;5.87;99.31;100089.50;5054478;28;20032;-49
2023/01/08 07:26:32;;;;;;;24.55;4.90;;;;;;;5.86;99.07;100097.13;5055166;28;20021;-47
2023/01/08 07:28:58;;;;;;;19.20;4.30;;;;;;;5.84;98.83;100099.66;5055376;28;20491;-48
2023/01/08 07:31:23;;;;;;;18.80;4.75;;;;;;;5.82;99.09;100103.81;5054393;28;20451;-49
2023/01/08 07:33:49;;;;;;;22.45;4.38;;;;;;;5.78;98.97;100101.97;5054977;28;20492;-49
2023/01/08 07:36:14;;;;;;;31.33;4.38;;;;;;;5.77;98.98;100105.34;5054866;28;20112;-51
2023/01/08 07:38:40;;;;;;;26.38;4.88;;;;;;;5.72;99.38;100111.97;5053945;28;20465;-48
2023/01/08 07:41:06;;;;;;;22.60;4.47;;;;;;;5.67;99.85;100109.25;5054842;28;20032;-49
2023/01/08 07:43:31;;;;;;;21.15;4.32;;;;;;;5.64;99.32;100103.16;5054616;28;20028;-50
2023/01/08 07:45:57;;;;;;;23.80;4.20;;;;;;;5.59;99.98;100105.50;5054000;28;20032;-49
2023/01/08 07:48:22;;;;;;;23.45;5.03;;;;;;;5.56;100.00;100111.38;5054877;28;20025;-47
2023/01/08 07:50:47;;;;;;;18.48;3.83;;;;;;;5.50;100.00;100106.06;5054350;28;20152;-48
2023/01/08 07:53:16;;;;;;;18.33;4.05;;;;;;;5.44;100.00;100090.50;5053998;28;20028;-50
2023/01/08 07:55:41;;;;;;;25.88;4.10;;;;;;;5.38;100.00;100101.31;5054544;28;20030;-49
2023/01/08 07:58:12;;;;;;;19.35;4.22;;;;;;;5.39;100.00;100107.34;5054831;28;20035;-46
2023/01/08 08:00:38;;;;;;;26.17;4.57;;;;;;;5.40;100.00;100106.53;5053606;28;20080;-48
2023/01/08 08:03:10;;;;;;;22.77;4.00;;;;;;;5.33;100.00;100107.94;5054578;28;20421;-49
2023/01/08 08:05:35;;;;;;;22.08;4.10;;;;;;;5.31;100.00;100096.81;5053306;28;20094;-49
2023/01/08 08:08:01;;;;;;;14.98;3.63;;;;;;;5.36;100.00;100102.09;5054704;28;20107;-48
2023/01/08 08:10:26;;;;;;;16.15;3.88;;;;;;;5.38;100.00;100100.47;5054805;28;20029;-50
2023/01/08 08:12:51;;;;;;;20.25;4.03;;;;;;;5.41;100.00;100081.03;5053537;28;20032;-51
2023/01/08 08:15:17;;;;;;;24.13;4.05;;;;;;;5.43;100.00;100073.41;5054422;28;20021;-48
2023/01/08 08:17:46;;;;;;;31.70;3.63;;;;;;;5.50;100.00;100075.41;5054672;28;20407;-50
2023/01/08 08:20:12;;;;;;;24.45;3.78;;;;;;;5.53;100.00;100064.41;5053333;28;20025;-50
2023/01/08 08:22:37;;;;;;;25.55;3.67;;;;;;;5.57;100.00;100067.13;5054193;28;20025;-49
2023/01/08 08:25:02;;;;;;;22.40;3.70;;;;;;;5.59;100.00;100057.84;5054319;28;20021;-49
2023/01/08 08:27:28;;;;;;;23.30;3.83;;;;;;;5.64;100.00;100052.03;5053014;28;20029;-48
2023/01/08 08:29:53;;;;;;;21.23;3.70;;;;;;;5.68;100.00;100059.88;5053842;28;20104;-49
2023/01/08 08:32:18;;;;;;;27.27;3.80;;;;;;;5.73;100.00;100057.47;5053683;28;20425;-49
2023/01/08 08:34:43;;;;;;;19.70;5.15;;;;;;;5.80;100.00;100054.31;5052891;28;20028;-50
2023/01/08 08:37:09;;;;;;;23.25;4.70;;;;;;;5.82;100.00;100068.00;5053990;28;20446;-49
2023/01/08 08:39:35;;;;;;;19.52;4.57;;;;;;;5.85;100.00;100068.16;5053777;28;20017;-49
2023/01/08 08:42:00;;;;;;;22.35;5.18;;;;;;;5.89;100.00;100059.75;5053277;28;20025;-50
2023/01/08 08:44:25;;;;;;;27.63;4.32;;;;;;;5.93;100.00;100065.88;5053679;28;20029;-49
2023/01/08 08:46:50;;;;;;;23.85;4.45;;;;;;;5.97;100.00;100069.41;5053498;28;20480;-49
2023/01/08 08:49:16;;;;;;;18.63;4.10;;;;;;;5.99;100.00;100062.69;5052805;28;20028;-48
2023/01/08 08:51:41;;;;;;;29.10;4.75;;;;;;;6.00;100.00;100061.88;5053420;28;20054;-46
2023/01/08 08:54:06;;;;;;;22.95;4.20;;;;;;;5.99;100.00;100061.00;5053547;28;20028;-50
2023/01/08 08:56:31;;;;;;;26.85;4.47;;;;;;;5.97;100.00;100056.63;5052535;28;20031;-45
2023/01/08 08:58:57;;;;;;;23.33;4.28;;;;;;;5.93;100.00;100047.97;5053704;28;20025;-51
2023/01/08 09:01:23;;;;;;;21.55;4.45;;;;;;;5.90;100.00;100045.28;5053585;28;20494;-50
2023/01/08 09:03:48;;;;;;;22.88;4.03;;;;;;;5.87;100.00;100040.91;5052285;28;20027;-48
2023/01/08 09:06:14;;;;;;;21.10;4.65;;;;;;;5.85;100.00;100040.00;5053547;28;20057;-49
2023/01/08 09:08:39;;;;;;;22.88;5.47;;;;;;;5.81;100.00;100045.84;5052528;28;20025;-47
2023/01/08 09:11:05;;;;;;;17.88;4.10;;;;;;;5.77;100.00;100044.84;5053367;28;20369;-50
2023/01/08 09:13:30;;;;;;;22.83;4.35;;;;;;;5.74;100.00;100043.88;5053162;28;20028;-50
2023/01/08 09:15:59;;;;;;;22.98;4.10;;;;;;;5.68;100.00;100051.31;5052551;28;20017;-50
2023/01/08 09:18:24;;;;;;;23.52;4.55;;;;;;;5.68;100.00;100048.75;5053208;28;20025;-50
2023/01/08 09:20:49;;;;;;;28.48;4.47;;;;;;;5.63;100.00;100052.81;5052990;28;20025;-49
2023/01/08 09:23:14;;;;;;;22.38;4.32;;;;;;;5.62;100.00;100054.53;5052539;28;20369;-48
2023/01/08 09:25:40;;;;;;;21.98;4.28;;;;;;;5.60;100.00;100046.81;5053046;28;20027;-48
2023/01/08 09:28:08;;;;;;;26.13;4.03;;;;;;;5.57;100.00;100045.81;5053104;28;20411;-49
2023/01/08 09:30:34;;;;;;;29.05;4.28;;;;;;;5.58;100.00;100050.13;5051832;28;20502;-50
2023/01/08 09:33:01;;;;;;;23.45;3.78;;;;;;;5.60;100.00;100044.25;5052927;28;20021;-49
2023/01/08 09:35:27;;;;;;;21.27;3.30;;;;;;;5.61;100.00;100045.09;5053177;28;20116;-49
2023/01/08 09:37:54;;;;;;;22.60;5.53;;;;;;;5.58;100.00;100038.19;5052275;28;20108;-48
2023/01/08 09:40:23;;;;;;;30.25;7.88;;;;;;;5.57;100.00;100022.81;5053041;28;20029;-49
2023/01/08 09:42:54;;;;;;;24.92;4.53;;;;;;;5.60;100.00;100034.03;5052532;28;20063;-49
2023/01/08 09:45:29;;;;;;;23.58;4.95;;;;;;;5.63;100.00;100034.94;5052105;28;20028;-49
2023/01/08 09:47:57;;;;;;;23.80;4.90;;;;;;;5.62;100.00;100031.53;5052910;28;20029;-50
2023/01/08 09:50:26;;;;;;;30.55;6.47;;;;;;;5.61;100.00;100033.19;5052848;28;20029;-49
2023/01/08 09:52:52;;;;;;;22.13;5.03;;;;;;;5.61;100.00;100033.19;5051932;28;20028;-50
2023/01/08 09:55:18;;;;;;;30.77;6.30;;;;;;;5.66;100.00;100029.94;5052902;28;20024;-48
2023/01/08 09:57:44;;;;;;;25.33;5.30;;;;;;;5.70;100.00;100026.69;5052422;28;20465;-50
2023/01/08 10:00:16;;;;;;;26.02;5.68;;;;;;;5.73;100.00;100026.78;5051803;28;20059;-49
2023/01/08 10:02:42;;;;;;;29.27;5.38;;;;;;;5.77;100.00;100023.50;5052542;28;20029;-49
2023/01/08 10:05:15;;;;;;;35.05;8.88;;;;;;;5.76;100.00;100016.69;5051760;28;20128;-49
2023/01/08 10:07:41;;;;;;;57.45;14.45;;;;;;;5.79;100.00;100016.78;5052275;28;20388;-49
2023/01/08 10:10:26;;;;;;;35.40;7.95;;;;;;;5.84;100.00;100022.94;5052553;28;20496;-46
2023/01/08 10:12:53;;;;;;;52.72;12.25;;;;;;;5.88;100.00;100021.34;5052039;28;20096;-49
2023/01/08 10:15:20;;;;;;;48.58;12.65;;;;;;;5.97;100.00;100013.13;5052624;28;20109;-49
2023/01/08 10:18:08;;;;;;;46.33;11.30;;;;;;;6.04;100.00;100007.44;5052361;28;20060;-49
2023/01/08 10:20:34;;;;;;;22.25;5.25;;;;;;;6.14;100.00;100004.38;5051438;28;20036;-47
2023/01/08 10:23:14;;;;;;;40.10;11.27;;;;;;;6.21;100.00;99996.09;5052337;28;20033;-47
2023/01/08 10:25:50;;;;;;;26.05;5.80;;;;;;;6.25;100.00;99994.50;5052308;28;20044;-48
2023/01/08 10:28:23;;;;;;;36.65;11.18;;;;;;;6.33;100.00;99992.22;5051574;28;20469;-49
2023/01/08 10:30:50;;;;;;;30.48;7.20;;;;;;;6.40;100.00;99991.56;5052050;28;20048;-45
2023/01/08 10:33:23;;;;;;;20.20;4.13;;;;;;;6.46;100.00;99991.78;5051693;28;20029;-45
2023/01/08 10:35:57;;;;;;;23.00;5.57;;;;;;;6.49;100.00;99986.75;5052300;28;20087;-49
2023/01/08 10:38:31;;;;;;;18.67;4.68;;;;;;;6.59;100.00;99982.81;5052562;28;20029;-49
2023/01/08 10:40:56;;;;;;;19.17;4.28;;;;;;;6.66;100.00;99984.75;5051608;28;20031;-45
2023/01/08 10:43:29;;;;;;;22.45;6.32;;;;;;;6.81;100.00;99981.78;5052414;28;20032;-49
2023/01/08 10:46:03;;;;;;;20.23;4.47;;;;;;;7.04;100.00;99972.22;5052247;28;20083;-49
2023/01/08 10:48:39;;;;;;;15.50;4.65;;;;;;;7.31;100.00;99970.41;5051450;28;20071;-49
2023/01/08 10:51:28;;;;;;;16.95;4.47;;;;;;;7.55;100.00;99970.25;5052309;28;20429;-48
2023/01/08 10:53:58;;;;;;;14.82;3.45;;;;;;;7.65;98.06;99950.84;5053350;28;20071;-50
2023/01/08 10:56:24;;;;;;;21.73;6.90;;;;;;;7.87;97.87;99952.28;5055076;28;20017;-49
2023/01/08 10:58:50;;;;;;;17.65;4.03;;;;;;;8.05;95.77;99946.75;5055762;28;20025;-49
2023/01/08 11:01:24;;;;;;;12.40;2.90;;;;;;;8.29;93.93;99945.63;5055235;28;20162;-49
2023/01/08 11:03:52;;;;;;;8.90;2.30;;;;;;;8.44;92.13;99953.69;5055380;28;20033;-49
2023/01/08 11:06:22;;;;;;;10.48;2.30;;;;;;;8.58;91.86;99943.78;5055651;28;20121;-50
2023/01/08 11:08:52;;;;;;;8.90;2.38;;;;;;;8.75;90.58;99941.59;5054577;28;20037;-49
2023/01/08 11:11:19;;;;;;;8.90;2.08;;;;;;;8.92;89.08;99943.66;5055726;28;20035;-46
2023/01/08 11:13:59;;;;;;;6.78;2.30;;;;;;;9.15;89.38;99936.44;5055149;28;20345;-48
2023/01/08 11:16:37;;;;;;;9.93;2.20;;;;;;;9.35;87.79;99936.88;5054840;28;20031;-50
2023/01/08 11:19:04;;;;;;;6.97;1.95;;;;;;;9.35;85.14;99935.16;5056036;28;20021;-46
2023/01/08 11:21:30;;;;;;;9.30;1.77;;;;;;;9.51;86.38;99936.31;5055027;28;20021;-48
2023/01/08 11:24:19;;;;;;;4.50;1.58;;;;;;;9.55;85.02;99922.69;5054769;28;20047;-50
2023/01/08 11:26:50;;;;;;;6.75;1.55;;;;;;;9.52;84.02;99909.75;5054943;28;20484;-48